Alpena, MI (49707)

5:18 PM EDT on July 24, 2016 (GMT -0400)
APRSWXNET | | Change Station

Elev 593 ft 45.05 °N, 83.45 °W | Updated 28 minutes ago

Scattered Clouds
Scattered Clouds
84 °F
Feels Like 90 °F
N
3
Wind Variable Wind from WSW
Gusts 10.0 mph

Today
High -- | Low -- °F
--% Chance of Precip.
Yesterday
High -- | Low -- °F
Precip. -- in
Pressure 29.81 in
Visibility 10.0 miles
Clouds Few 3000 ft
Few 6000 ft
Scattered Clouds 9000 ft
Heat Index 90 °F
Dew Point 72 °F
Humidity 67%
Rainfall in
Snow Depth Not available.
6:10 AM 9:09 PM
Waning Gibbous, 73% visible
METAR KAPN 242054Z AUTO 24006KT 10SM FEW030 FEW060 SCT090 30/20 A2982 RMK AO2 SLP095 T03000200 58007
Pressure 29.81 in
Visibility 10.0 miles
Clouds Few 3000 ft
Few 6000 ft
Scattered Clouds 9000 ft
Heat Index 90 °F
Dew Point 72 °F
Humidity 67%
Rainfall in
Snow Depth Not available.
6:10 AM 9:09 PM
Waning Gibbous, 73% visible
METAR KAPN 242054Z AUTO 24006KT 10SM FEW030 FEW060 SCT090 30/20 A2982 RMK AO2 SLP095 T03000200 58007

10-Day Weather Forecast

Almanac

Astronomy

Jul. 24, 2016 Rise Set
Actual Time
Civil Twilight
Nautical Twilight
Astronomical Twilight
Moon
Length of Visible Light
Length of Day
Tomorrow will be .
, % of the Moon is Illuminated

Today's Extremes

State Highs State Lows

Community

WunderPhotos

Upload Photos

1,927,191 photos uploaded!

WunderBlog® & News

Nearby

Air Quality

  Air Quality AQ Index Pollutant
Not available.

Snow Depth

Station Depth Elevation

Earthquake Activity

City Distance Mag. Time & Date
Minimum magnitude displayed is 2.5.

Coastal Water Temperatures

Place Temperature

Stations

Nearby Weather Stations

Station Location Temp. Windchill Dew Point Humidity Wind Precip. Elev Updated Type
                   

Watches & Warnings

There are currently no watches in effect.